createdAt,value
2023-06-09T00:00:29.071Z,15.02
2023-06-09T00:00:59.064Z,15
2023-06-09T00:01:29.062Z,14.98
2023-06-09T00:01:59.085Z,14.96
2023-06-09T00:02:29.132Z,14.93
2023-06-09T00:03:00.010Z,14.91
2023-06-09T00:03:29.162Z,14.89
2023-06-09T00:03:59.158Z,14.86
2023-06-09T00:04:29.106Z,14.85
2023-06-09T00:04:59.065Z,14.85
2023-06-09T00:05:29.066Z,14.84
2023-06-09T00:05:59.063Z,14.83
2023-06-09T00:06:29.067Z,14.83
2023-06-09T00:06:59.065Z,14.83
2023-06-09T00:07:29.068Z,14.83
2023-06-09T00:07:59.068Z,14.83
2023-06-09T00:08:29.069Z,14.81
2023-06-09T00:08:59.074Z,14.8
2023-06-09T00:09:29.076Z,14.8
2023-06-09T00:09:59.072Z,14.81
2023-06-09T00:10:29.075Z,14.83
2023-06-09T00:10:59.068Z,14.85
2023-06-09T00:11:29.066Z,14.87
2023-06-09T00:11:59.098Z,14.88
2023-06-09T00:12:29.070Z,14.9
2023-06-09T00:12:59.076Z,14.92
2023-06-09T00:13:29.073Z,14.94
2023-06-09T00:13:59.072Z,14.94
2023-06-09T00:14:29.079Z,14.95
2023-06-09T00:14:59.075Z,14.95
2023-06-09T00:15:29.078Z,14.94
2023-06-09T00:15:59.080Z,14.95
2023-06-09T00:16:29.100Z,14.95
2023-06-09T00:16:59.079Z,14.94
2023-06-09T00:17:29.121Z,14.93
2023-06-09T00:17:59.120Z,14.93
2023-06-09T00:18:29.090Z,14.92
2023-06-09T00:18:59.086Z,14.92
2023-06-09T00:19:29.076Z,14.92
2023-06-09T00:19:59.071Z,14.91
2023-06-09T00:20:29.073Z,14.91
2023-06-09T00:20:59.074Z,14.9
2023-06-09T00:21:29.068Z,14.9
2023-06-09T00:21:59.073Z,14.9
2023-06-09T00:22:29.078Z,14.9
2023-06-09T00:22:59.077Z,14.91
2023-06-09T00:23:29.137Z,14.91
2023-06-09T00:23:59.109Z,14.92
2023-06-09T00:24:29.081Z,14.91
2023-06-09T00:24:59.074Z,14.92
2023-06-09T00:25:29.073Z,14.91
2023-06-09T00:25:59.068Z,14.9
2023-06-09T00:26:29.075Z,14.91
2023-06-09T00:26:59.092Z,14.91
2023-06-09T00:27:29.073Z,14.91
2023-06-09T00:27:59.070Z,14.9
2023-06-09T00:28:29.072Z,14.9
2023-06-09T00:28:59.077Z,14.89
2023-06-09T00:29:29.073Z,14.88
2023-06-09T00:29:59.086Z,14.87
2023-06-09T00:30:38.959Z,14.87
2023-06-09T00:31:00.435Z,14.86
2023-06-09T00:31:29.140Z,14.85
2023-06-09T00:31:59.073Z,14.84
2023-06-09T00:32:29.179Z,14.82
2023-06-09T00:32:59.101Z,14.81
2023-06-09T00:33:29.083Z,14.79
2023-06-09T00:33:59.085Z,14.79
2023-06-09T00:34:29.072Z,14.78
2023-06-09T00:34:59.075Z,14.78
2023-06-09T00:35:29.080Z,14.78
2023-06-09T00:35:59.072Z,14.79
2023-06-09T00:36:29.092Z,14.79
2023-06-09T00:36:59.087Z,14.8
2023-06-09T00:37:29.071Z,14.81
2023-06-09T00:37:59.074Z,14.8
2023-06-09T00:38:29.075Z,14.8
2023-06-09T00:38:59.075Z,14.8
2023-06-09T00:39:29.078Z,14.8
2023-06-09T00:39:59.082Z,14.8
2023-06-09T00:40:29.074Z,14.81
2023-06-09T00:40:59.073Z,14.81
2023-06-09T00:41:29.085Z,14.83
2023-06-09T00:41:59.079Z,14.85
2023-06-09T00:42:29.096Z,14.87
2023-06-09T00:42:59.073Z,14.89
2023-06-09T00:43:29.073Z,14.91
2023-06-09T00:43:59.080Z,14.93
2023-06-09T00:44:29.075Z,14.95
2023-06-09T00:44:59.075Z,14.97
2023-06-09T00:45:29.099Z,14.99
2023-06-09T00:45:59.077Z,15
2023-06-09T00:46:29.129Z,15
2023-06-09T00:46:59.194Z,15.01
2023-06-09T00:47:29.105Z,15.01
2023-06-09T00:47:59.089Z,15.01
2023-06-09T00:48:29.091Z,15.02
2023-06-09T00:48:59.093Z,15.05
2023-06-09T00:49:29.078Z,15.08
2023-06-09T00:49:59.074Z,15.1
2023-06-09T00:50:29.087Z,15.1
2023-06-09T00:50:59.102Z,15.1
2023-06-09T00:51:29.076Z,15.12
2023-06-09T00:51:59.083Z,15.13
2023-06-09T00:52:29.083Z,15.12
2023-06-09T00:52:59.077Z,15.11
2023-06-09T00:53:29.111Z,15.11
2023-06-09T00:53:59.086Z,15.11
2023-06-09T00:54:29.084Z,15.13
2023-06-09T00:54:59.090Z,15.14
2023-06-09T00:55:29.079Z,15.16
2023-06-09T00:55:59.083Z,15.17
2023-06-09T00:56:29.077Z,15.18
2023-06-09T00:56:59.092Z,15.2
2023-06-09T00:57:29.079Z,15.22
2023-06-09T00:57:59.078Z,15.23
2023-06-09T00:58:29.081Z,15.25
2023-06-09T00:58:59.081Z,15.25
2023-06-09T00:59:29.080Z,15.27
2023-06-09T00:59:59.084Z,15.29
2023-06-09T01:00:29.176Z,15.3
2023-06-09T01:00:59.095Z,15.3
2023-06-09T01:01:29.144Z,15.31
2023-06-09T01:01:59.083Z,15.32
2023-06-09T01:02:29.105Z,15.32
2023-06-09T01:02:59.177Z,15.34
2023-06-09T01:03:29.182Z,15.35
2023-06-09T01:03:59.187Z,15.36
2023-06-09T01:04:29.082Z,15.38
2023-06-09T01:04:59.085Z,15.39
2023-06-09T01:05:29.112Z,15.41
2023-06-09T01:05:59.085Z,15.4
2023-06-09T01:06:29.082Z,15.4
2023-06-09T01:06:59.084Z,15.42
2023-06-09T01:07:29.085Z,15.42
2023-06-09T01:07:59.129Z,15.42
2023-06-09T01:08:29.086Z,15.42
2023-06-09T01:08:59.088Z,15.41
2023-06-09T01:09:29.087Z,15.4
2023-06-09T01:09:59.094Z,15.38
2023-06-09T01:10:29.085Z,15.36
2023-06-09T01:10:59.085Z,15.34
2023-06-09T01:11:29.084Z,15.34
2023-06-09T01:11:59.093Z,15.32
2023-06-09T01:12:29.085Z,15.32
2023-06-09T01:12:59.082Z,15.3
2023-06-09T01:13:29.081Z,15.3
2023-06-09T01:13:59.084Z,15.28
2023-06-09T01:14:29.084Z,15.27
2023-06-09T01:14:59.088Z,15.26
2023-06-09T01:15:29.090Z,15.25
2023-06-09T01:15:59.135Z,15.25
2023-06-09T01:16:29.168Z,15.25
2023-06-09T01:16:59.177Z,15.25
2023-06-09T01:17:29.154Z,15.24
2023-06-09T01:17:59.132Z,15.24
2023-06-09T01:18:29.091Z,15.26
2023-06-09T01:18:59.092Z,15.29
2023-06-09T01:19:29.098Z,15.31
2023-06-09T01:19:59.087Z,15.34
2023-06-09T01:20:29.083Z,15.34
2023-06-09T01:20:59.090Z,15.36
2023-06-09T01:21:29.090Z,15.36
2023-06-09T01:21:59.085Z,15.35
2023-06-09T01:22:29.100Z,15.35
2023-06-09T01:22:59.082Z,15.34
2023-06-09T01:23:29.132Z,15.36
2023-06-09T01:23:59.084Z,15.37
2023-06-09T01:24:29.093Z,15.38
2023-06-09T01:24:59.092Z,15.4
2023-06-09T01:25:29.091Z,15.41
2023-06-09T01:25:59.084Z,15.44
2023-06-09T01:26:29.090Z,15.46
2023-06-09T01:26:59.098Z,15.49
2023-06-09T01:27:29.093Z,15.52
2023-06-09T01:27:59.109Z,15.56
2023-06-09T01:28:29.088Z,15.6
2023-06-09T01:28:59.092Z,15.64
2023-06-09T01:29:29.091Z,15.66
2023-06-09T01:29:59.097Z,15.68
2023-06-09T01:30:29.088Z,15.69
2023-06-09T01:30:59.086Z,15.7
2023-06-09T01:31:29.104Z,15.72
2023-06-09T01:31:59.119Z,15.73
2023-06-09T01:32:29.191Z,15.73
2023-06-09T01:32:59.163Z,15.74
2023-06-09T01:33:29.101Z,15.75
2023-06-09T01:33:59.094Z,15.76
2023-06-09T01:34:29.097Z,15.76
2023-06-09T01:34:59.097Z,15.76
2023-06-09T01:35:29.694Z,15.78
2023-06-09T01:35:59.092Z,15.78
2023-06-09T01:36:29.088Z,15.79
2023-06-09T01:36:59.103Z,15.79
2023-06-09T01:37:29.095Z,15.79
2023-06-09T01:37:59.098Z,15.79
2023-06-09T01:38:29.090Z,15.79
2023-06-09T01:38:59.096Z,15.79
2023-06-09T01:39:29.090Z,15.8
2023-06-09T01:39:59.131Z,15.82
2023-06-09T01:40:29.115Z,15.83
2023-06-09T01:40:59.111Z,15.85
2023-06-09T01:41:29.089Z,15.87
2023-06-09T01:41:59.090Z,15.91
2023-06-09T01:42:29.100Z,15.94
2023-06-09T01:42:59.103Z,15.97
2023-06-09T01:43:29.104Z,16.01
2023-06-09T01:43:59.091Z,16.04
2023-06-09T01:44:29.091Z,16.07
2023-06-09T01:44:59.096Z,16.1
2023-06-09T01:45:29.105Z,16.14
2023-06-09T01:45:59.141Z,16.17
2023-06-09T01:46:29.153Z,16.21
2023-06-09T01:46:59.091Z,16.22
2023-06-09T01:47:29.192Z,16.24
2023-06-09T01:47:59.171Z,16.25
2023-06-09T01:48:29.116Z,16.25
2023-06-09T01:48:59.096Z,16.25
2023-06-09T01:49:29.107Z,16.25
2023-06-09T01:49:59.088Z,16.25
2023-06-09T01:50:29.090Z,16.25
2023-06-09T01:50:59.094Z,16.23
2023-06-09T01:51:29.107Z,16.23
2023-06-09T01:51:59.103Z,16.24
2023-06-09T01:52:29.097Z,16.24
2023-06-09T01:52:59.102Z,16.25
2023-06-09T01:53:29.129Z,16.28
2023-06-09T01:53:59.097Z,16.3
2023-06-09T01:54:29.101Z,16.32
2023-06-09T01:54:59.090Z,16.35
2023-06-09T01:55:29.100Z,16.38
2023-06-09T01:55:59.095Z,16.4
2023-06-09T01:56:29.097Z,16.43
2023-06-09T01:56:59.123Z,16.46
2023-06-09T01:57:29.102Z,16.47
2023-06-09T01:57:59.097Z,16.49
2023-06-09T01:58:29.099Z,16.53
2023-06-09T01:58:59.095Z,16.57
2023-06-09T01:59:29.098Z,16.61
2023-06-09T01:59:59.097Z,16.64
2023-06-09T02:00:29.093Z,16.67
2023-06-09T02:00:59.094Z,16.7
2023-06-09T02:01:29.123Z,16.72
2023-06-09T02:01:59.135Z,16.74
2023-06-09T02:02:29.150Z,16.77
2023-06-09T02:02:59.187Z,16.79
2023-06-09T02:03:29.165Z,16.81
2023-06-09T02:03:59.143Z,16.83
2023-06-09T02:04:29.101Z,16.84
2023-06-09T02:04:59.097Z,16.85
2023-06-09T02:05:29.094Z,16.86
2023-06-09T02:05:59.099Z,16.85
2023-06-09T02:06:29.099Z,16.85
2023-06-09T02:06:59.095Z,16.87
2023-06-09T02:07:29.101Z,16.9
2023-06-09T02:07:59.104Z,16.93
2023-06-09T02:08:29.098Z,16.95
2023-06-09T02:08:59.097Z,16.96
2023-06-09T02:09:29.103Z,16.98
2023-06-09T02:09:59.104Z,16.99
2023-06-09T02:10:29.097Z,17.03
2023-06-09T02:10:59.113Z,17.06
2023-06-09T02:11:29.097Z,17.07
2023-06-09T02:11:59.095Z,17.11
2023-06-09T02:12:29.098Z,17.12
2023-06-09T02:12:59.131Z,17.13
2023-06-09T02:13:29.103Z,17.15
2023-06-09T02:13:59.098Z,17.16
2023-06-09T02:14:29.109Z,17.17
2023-06-09T02:14:59.097Z,17.21
2023-06-09T02:15:29.109Z,17.23
2023-06-09T02:15:59.121Z,17.27
2023-06-09T02:16:29.123Z,17.32
2023-06-09T02:16:59.102Z,17.34
2023-06-09T02:17:29.149Z,17.36
2023-06-09T02:17:59.126Z,17.37
2023-06-09T02:18:29.107Z,17.38
2023-06-09T02:18:59.104Z,17.37
2023-06-09T02:19:29.105Z,17.39
2023-06-09T02:19:59.104Z,17.41
2023-06-09T02:20:29.109Z,17.43
2023-06-09T02:20:59.106Z,17.42
2023-06-09T02:21:29.104Z,17.44
2023-06-09T02:21:59.112Z,17.49
2023-06-09T02:22:29.106Z,17.54
2023-06-09T02:22:59.102Z,17.56
2023-06-09T02:23:29.098Z,17.59
2023-06-09T02:23:59.140Z,17.63
2023-06-09T02:24:29.114Z,17.65
2023-06-09T02:24:59.106Z,17.69
2023-06-09T02:25:29.107Z,17.74
2023-06-09T02:25:59.102Z,17.75
2023-06-09T02:26:29.101Z,17.77
2023-06-09T02:26:59.102Z,17.78
2023-06-09T02:27:29.108Z,17.8
2023-06-09T02:27:59.135Z,17.82
2023-06-09T02:28:29.102Z,17.86
2023-06-09T02:28:59.117Z,17.87
2023-06-09T02:29:29.125Z,17.92
2023-06-09T02:29:59.109Z,17.93
2023-06-09T02:30:29.122Z,17.93
2023-06-09T02:30:59.109Z,17.94
2023-06-09T02:31:29.164Z,17.95
2023-06-09T02:31:59.142Z,17.98
2023-06-09T02:32:29.156Z,17.98
2023-06-09T02:32:59.157Z,18
2023-06-09T02:33:29.106Z,18.02
2023-06-09T02:33:59.107Z,18.05
2023-06-09T02:34:29.112Z,18.07
2023-06-09T02:34:59.129Z,18.06
2023-06-09T02:35:29.106Z,18.06
2023-06-09T02:35:59.126Z,18.11
2023-06-09T02:36:29.112Z,18.15
2023-06-09T02:36:59.105Z,18.2
2023-06-09T02:37:29.110Z,18.25
2023-06-09T02:37:59.116Z,18.27
2023-06-09T02:38:29.105Z,18.29
2023-06-09T02:38:59.124Z,18.31
2023-06-09T02:39:29.113Z,18.34
2023-06-09T02:39:59.114Z,18.38
2023-06-09T02:40:29.125Z,18.38
2023-06-09T02:40:59.110Z,18.37
2023-06-09T02:41:29.112Z,18.4
2023-06-09T02:41:59.108Z,18.45
2023-06-09T02:42:29.116Z,18.48
2023-06-09T02:42:59.110Z,18.52
2023-06-09T02:43:29.116Z,18.55
2023-06-09T02:43:59.108Z,18.59
2023-06-09T02:44:29.108Z,18.62
2023-06-09T02:44:59.116Z,18.63
2023-06-09T02:45:29.142Z,18.61
2023-06-09T02:45:59.177Z,18.6
2023-06-09T02:46:29.130Z,18.6
2023-06-09T02:46:59.109Z,18.55
2023-06-09T02:47:29.163Z,18.54
2023-06-09T02:47:59.170Z,18.54
2023-06-09T02:48:29.117Z,18.55
2023-06-09T02:48:59.128Z,18.59
2023-06-09T02:49:29.117Z,18.64
2023-06-09T02:49:59.114Z,18.69
2023-06-09T02:50:29.113Z,18.72
2023-06-09T02:50:59.118Z,18.69
2023-06-09T02:51:29.109Z,18.68
2023-06-09T02:51:59.122Z,18.67
2023-06-09T02:52:29.120Z,18.69
2023-06-09T02:52:59.163Z,18.74
2023-06-09T02:53:29.209Z,18.77
2023-06-09T02:53:59.113Z,18.81
2023-06-09T02:54:29.119Z,18.83
2023-06-09T02:54:59.119Z,18.86
2023-06-09T02:55:29.114Z,18.88
2023-06-09T02:55:59.121Z,18.88
2023-06-09T02:56:29.114Z,18.88
2023-06-09T02:56:59.112Z,18.9
2023-06-09T02:57:29.128Z,18.89
2023-06-09T02:57:59.117Z,18.9
2023-06-09T02:58:29.119Z,18.89
2023-06-09T02:58:59.122Z,18.92
2023-06-09T02:59:29.115Z,18.95
2023-06-09T02:59:59.115Z,18.98
2023-06-09T03:00:29.119Z,19.02
2023-06-09T03:00:59.211Z,19.01
2023-06-09T03:01:29.201Z,19.03
2023-06-09T03:01:59.146Z,19.04
2023-06-09T03:02:29.157Z,19.07
2023-06-09T03:02:59.230Z,19.07
2023-06-09T03:03:29.303Z,19.1
2023-06-09T03:03:59.184Z,19.08
2023-06-09T03:04:29.148Z,19.09
2023-06-09T03:04:59.130Z,19.11
2023-06-09T03:05:29.130Z,19.15
2023-06-09T03:05:59.116Z,19.2
2023-06-09T03:06:29.115Z,19.22
2023-06-09T03:06:59.114Z,19.27
2023-06-09T03:07:29.117Z,19.32
2023-06-09T03:07:59.157Z,19.36
2023-06-09T03:08:29.124Z,19.4
2023-06-09T03:08:59.124Z,19.43
2023-06-09T03:09:29.130Z,19.46
2023-06-09T03:09:59.116Z,19.47
2023-06-09T03:10:29.117Z,19.49
2023-06-09T03:10:59.121Z,19.51
2023-06-09T03:11:29.127Z,19.51
2023-06-09T03:11:59.117Z,19.49
2023-06-09T03:12:29.120Z,19.49
2023-06-09T03:12:59.125Z,19.51
2023-06-09T03:13:29.118Z,19.53
2023-06-09T03:13:59.131Z,19.54
2023-06-09T03:14:29.118Z,19.58
2023-06-09T03:14:59.129Z,19.64
2023-06-09T03:15:29.118Z,19.65
2023-06-09T03:15:59.119Z,19.66
2023-06-09T03:16:29.189Z,19.66
2023-06-09T03:16:59.141Z,19.64
2023-06-09T03:17:29.152Z,19.62
2023-06-09T03:17:59.265Z,19.62
2023-06-09T03:18:29.150Z,19.64
2023-06-09T03:18:59.132Z,19.67
2023-06-09T03:19:29.149Z,19.72
2023-06-09T03:19:59.120Z,19.75
2023-06-09T03:20:29.361Z,19.81
2023-06-09T03:20:59.120Z,19.83
2023-06-09T03:21:29.127Z,19.85
2023-06-09T03:21:59.156Z,19.91
2023-06-09T03:22:29.120Z,19.96
2023-06-09T03:22:59.125Z,19.96
2023-06-09T03:23:29.161Z,19.97
2023-06-09T03:23:59.218Z,19.96
2023-06-09T03:24:29.123Z,19.97
2023-06-09T03:24:59.129Z,20
2023-06-09T03:25:29.124Z,20.05
2023-06-09T03:25:59.120Z,20.12
2023-06-09T03:26:29.124Z,20.18
2023-06-09T03:26:59.130Z,20.23
2023-06-09T03:27:29.129Z,20.24
2023-06-09T03:27:59.159Z,20.25
2023-06-09T03:28:29.122Z,20.28
2023-06-09T03:28:59.125Z,20.3
2023-06-09T03:29:29.143Z,20.28
2023-06-09T03:29:59.136Z,20.28
2023-06-09T03:30:29.125Z,20.29
2023-06-09T03:30:59.170Z,20.32
2023-06-09T03:31:29.216Z,20.35
2023-06-09T03:31:59.132Z,20.31
2023-06-09T03:32:29.162Z,20.29
2023-06-09T03:32:59.250Z,20.26
2023-06-09T03:33:29.132Z,20.28
2023-06-09T03:33:59.133Z,20.33
2023-06-09T03:34:29.137Z,20.37
2023-06-09T03:34:59.139Z,20.43
2023-06-09T03:35:29.123Z,20.48
2023-06-09T03:35:59.132Z,20.55
2023-06-09T03:36:29.124Z,20.57
2023-06-09T03:36:59.132Z,20.58
2023-06-09T03:37:29.137Z,20.6
2023-06-09T03:37:59.123Z,20.62
2023-06-09T03:38:29.130Z,20.61
2023-06-09T03:38:59.135Z,20.66
2023-06-09T03:39:29.135Z,20.72
2023-06-09T03:39:59.130Z,20.79
2023-06-09T03:40:29.130Z,20.8
2023-06-09T03:40:59.128Z,20.85
2023-06-09T03:41:29.129Z,20.93
2023-06-09T03:41:59.171Z,21.01
2023-06-09T03:42:29.125Z,21.03
2023-06-09T03:42:59.133Z,21.04
2023-06-09T03:43:29.128Z,21.08
2023-06-09T03:43:59.128Z,21.08
2023-06-09T03:44:29.131Z,21.11
2023-06-09T03:44:59.126Z,21.16
2023-06-09T03:45:29.129Z,21.23
2023-06-09T03:45:59.136Z,21.27
2023-06-09T03:46:29.225Z,21.35
2023-06-09T03:46:59.266Z,21.48
2023-06-09T03:47:29.184Z,21.75
2023-06-09T03:47:59.217Z,22.24
2023-06-09T03:48:29.131Z,22.98
2023-06-09T03:48:59.136Z,23.92
2023-06-09T03:49:29.150Z,25.05
2023-06-09T03:49:59.138Z,26.31
2023-06-09T03:50:29.129Z,27.53
2023-06-09T03:50:59.139Z,28.67
2023-06-09T03:51:29.133Z,29.81
2023-06-09T03:51:59.142Z,30.89
2023-06-09T03:52:29.134Z,31.82
2023-06-09T03:52:59.130Z,32.39
2023-06-09T03:53:29.130Z,32.8
2023-06-09T03:53:59.157Z,33.08
2023-06-09T03:54:29.140Z,33.34
2023-06-09T03:54:59.137Z,33.5
2023-06-09T03:55:29.132Z,33.67
2023-06-09T03:55:59.132Z,33.86
2023-06-09T03:56:29.133Z,34.3
2023-06-09T03:56:59.134Z,34.92
2023-06-09T03:57:29.152Z,35.48
2023-06-09T03:57:59.134Z,35.97
2023-06-09T03:58:29.139Z,36.37
2023-06-09T03:58:59.152Z,36.78
2023-06-09T03:59:29.150Z,37.24
2023-06-09T03:59:59.142Z,37.83
2023-06-09T04:00:29.139Z,38.34
2023-06-09T04:00:59.150Z,38.57
2023-06-09T04:01:29.138Z,38.79
2023-06-09T04:01:59.167Z,39.13
2023-06-09T04:02:29.306Z,39.13
2023-06-09T04:02:59.157Z,39.19
2023-06-09T04:03:29.155Z,39.11
2023-06-09T04:03:59.166Z,39.3
2023-06-09T04:04:29.194Z,39.53
2023-06-09T04:04:59.141Z,39.76
2023-06-09T04:05:29.138Z,39.92
2023-06-09T04:05:59.159Z,40.18
2023-06-09T04:06:29.139Z,40.55
2023-06-09T04:06:59.143Z,41.06
2023-06-09T04:07:29.145Z,41.24
2023-06-09T04:07:59.142Z,41.41
2023-06-09T04:08:29.146Z,41.51
2023-06-09T04:08:59.141Z,41.74
2023-06-09T04:09:29.141Z,42.01
2023-06-09T04:09:59.148Z,42.41
2023-06-09T04:10:29.145Z,42.65
2023-06-09T04:10:59.142Z,42.75
2023-06-09T04:11:29.150Z,42.53
2023-06-09T04:11:59.141Z,42.39
2023-06-09T04:12:29.144Z,42.25
2023-06-09T04:12:59.150Z,42.16
2023-06-09T04:13:29.152Z,42.34
2023-06-09T04:13:59.145Z,42.49
2023-06-09T04:14:29.148Z,42.86
2023-06-09T04:14:59.145Z,43.12
2023-06-09T04:15:29.186Z,43.31
2023-06-09T04:15:59.177Z,43.47
2023-06-09T04:16:29.185Z,43.47
2023-06-09T04:16:59.200Z,43.61
2023-06-09T04:17:29.250Z,43.58
2023-06-09T04:17:59.227Z,43.17
2023-06-09T04:18:29.177Z,42.89
2023-06-09T04:18:59.161Z,42.91
2023-06-09T04:19:29.159Z,43.19
2023-06-09T04:19:59.150Z,43.49
2023-06-09T04:20:29.164Z,43.76
2023-06-09T04:20:59.148Z,43.66
2023-06-09T04:21:29.152Z,43.32
2023-06-09T04:21:59.145Z,42.96
2023-06-09T04:22:29.169Z,42.84
2023-06-09T04:22:59.149Z,42.67
2023-06-09T04:23:29.192Z,42.59
2023-06-09T04:23:59.218Z,42.72
2023-06-09T04:24:29.159Z,42.65
2023-06-09T04:24:59.146Z,42.54
2023-06-09T04:25:29.152Z,41.83
2023-06-09T04:25:59.150Z,40.88
2023-06-09T04:26:29.162Z,40.25
2023-06-09T04:26:59.166Z,39.94
2023-06-09T04:27:29.158Z,39.82
2023-06-09T04:27:59.153Z,40.04
2023-06-09T04:28:29.169Z,40.23
2023-06-09T04:28:59.153Z,40.59
2023-06-09T04:29:29.166Z,40.47
2023-06-09T04:29:59.156Z,40.5
2023-06-09T04:30:29.151Z,40.73
2023-06-09T04:30:59.152Z,41.1
2023-06-09T04:31:29.190Z,41.14
2023-06-09T04:31:59.202Z,40.91
2023-06-09T04:32:29.212Z,40.96
2023-06-09T04:32:59.178Z,41.07
2023-06-09T04:33:29.167Z,41.07
2023-06-09T04:33:59.158Z,41.25
2023-06-09T04:34:29.157Z,41.53
2023-06-09T04:34:59.158Z,41.62
2023-06-09T04:35:29.157Z,41.27
2023-06-09T04:35:59.158Z,41.3
2023-06-09T04:36:29.155Z,41.41
2023-06-09T04:36:59.154Z,41.44
2023-06-09T04:37:29.157Z,41.05
2023-06-09T04:38:00.829Z,40.76
2023-06-09T04:38:30.112Z,40.27
2023-06-09T04:38:59.156Z,40.08
2023-06-09T04:39:29.157Z,40.36
2023-06-09T04:39:59.153Z,40.66
2023-06-09T04:40:29.154Z,40.04
2023-06-09T04:40:59.234Z,39.77
2023-06-09T04:41:29.154Z,39.7
2023-06-09T04:41:59.157Z,39.3
2023-06-09T04:42:29.162Z,39.14
2023-06-09T04:42:59.160Z,39.28
2023-06-09T04:43:29.157Z,39.29
2023-06-09T04:43:59.163Z,39.44
2023-06-09T04:44:29.155Z,39.7
2023-06-09T04:44:59.158Z,39.64
2023-06-09T04:45:29.219Z,39.71
2023-06-09T04:45:59.163Z,39.53
2023-06-09T04:46:29.205Z,39.16
2023-06-09T04:46:59.163Z,39.16
2023-06-09T04:47:29.188Z,39.01
2023-06-09T04:47:59.191Z,39
2023-06-09T04:48:29.159Z,39.17
2023-06-09T04:48:59.163Z,39.35
2023-06-09T04:49:29.164Z,39.06
2023-06-09T04:49:59.165Z,38.74
2023-06-09T04:50:29.164Z,38.47
2023-06-09T04:50:59.190Z,38.56
2023-06-09T04:51:29.158Z,38.8
2023-06-09T04:51:59.161Z,39.34
2023-06-09T04:52:29.164Z,39.44
2023-06-09T04:52:59.164Z,39.38
2023-06-09T04:53:29.161Z,39.43
2023-06-09T04:53:59.166Z,39.62
2023-06-09T04:54:29.161Z,39.78
2023-06-09T04:54:59.159Z,40.06
2023-06-09T04:55:29.169Z,40.43
2023-06-09T04:55:59.162Z,40.71
2023-06-09T04:56:29.178Z,40.56
2023-06-09T04:56:59.170Z,40.16
2023-06-09T04:57:29.162Z,39.27
2023-06-09T04:57:59.168Z,38.85
2023-06-09T04:58:29.174Z,38.77
2023-06-09T04:58:59.160Z,38.56
2023-06-09T04:59:29.170Z,38.16
2023-06-09T04:59:59.170Z,38.11
2023-06-09T05:00:29.172Z,38.19
2023-06-09T05:00:59.168Z,38.64
2023-06-09T05:01:29.195Z,38.83
2023-06-09T05:01:59.344Z,39.12
2023-06-09T05:02:30.704Z,38.91
2023-06-09T05:03:00.264Z,38.11
2023-06-09T05:03:29.165Z,37.71
2023-06-09T05:03:59.165Z,37.58
2023-06-09T05:04:29.165Z,37.68
2023-06-09T05:04:59.183Z,38.15
2023-06-09T05:05:29.191Z,38.65
2023-06-09T05:05:59.168Z,38.96
2023-06-09T05:06:29.171Z,39.19
2023-06-09T05:06:59.160Z,39.37
2023-06-09T05:07:29.181Z,39.24
2023-06-09T05:07:59.164Z,39.44
2023-06-09T05:08:31.621Z,39.64
2023-06-09T05:09:00.431Z,40.12
2023-06-09T05:09:29.184Z,40.6
2023-06-09T05:09:59.174Z,41.11
2023-06-09T05:10:29.168Z,41.62
2023-06-09T05:10:59.166Z,41.76
2023-06-09T05:11:29.165Z,41.91
2023-06-09T05:11:59.163Z,41.97
2023-06-09T05:12:29.164Z,41.94
2023-06-09T05:12:59.176Z,41.5
2023-06-09T05:13:29.170Z,40.49
2023-06-09T05:13:59.168Z,39.84
2023-06-09T05:14:31.963Z,39.71
2023-06-09T05:15:00.285Z,39.5
2023-06-09T05:15:29.207Z,39.32
2023-06-09T05:15:59.183Z,39.62
2023-06-09T05:16:29.199Z,39.97
2023-06-09T05:16:59.168Z,40.4
2023-06-09T05:17:29.274Z,40.19
2023-06-09T05:17:59.277Z,39.91
2023-06-09T05:18:29.170Z,39.55
2023-06-09T05:18:59.172Z,39.56
2023-06-09T05:19:29.169Z,39.92
2023-06-09T05:19:59.173Z,40.22
2023-06-09T05:20:29.176Z,39.96
2023-06-09T05:20:59.179Z,39.71
2023-06-09T05:21:29.180Z,39.84
2023-06-09T05:21:59.168Z,40.02
2023-06-09T05:22:29.199Z,40.3
2023-06-09T05:22:59.171Z,40.72
2023-06-09T05:23:29.196Z,41
2023-06-09T05:23:59.267Z,40.94
2023-06-09T05:24:29.179Z,41.09
2023-06-09T05:24:59.175Z,40.67
2023-06-09T05:25:29.175Z,39.85
2023-06-09T05:25:59.170Z,38.97
2023-06-09T05:26:29.173Z,38.53
2023-06-09T05:26:59.179Z,38.73
2023-06-09T05:27:29.174Z,39.28
2023-06-09T05:27:59.174Z,39.53
2023-06-09T05:28:29.174Z,39.71
2023-06-09T05:28:59.172Z,39.97
2023-06-09T05:29:29.170Z,39.85
2023-06-09T05:29:59.177Z,39.88
2023-06-09T05:30:29.178Z,40.03
2023-06-09T05:30:59.170Z,40.33
2023-06-09T05:31:29.230Z,40.75
2023-06-09T05:31:59.218Z,40.96
2023-06-09T05:32:29.190Z,40.64
2023-06-09T05:32:59.246Z,40.16
2023-06-09T05:33:29.178Z,40.1
2023-06-09T05:33:59.176Z,40.31
2023-06-09T05:34:29.175Z,40.29
2023-06-09T05:34:59.172Z,40.24
2023-06-09T05:35:29.177Z,40.07
2023-06-09T05:35:59.183Z,39.85
2023-06-09T05:36:29.193Z,39.48
2023-06-09T05:36:59.195Z,39.35
2023-06-09T05:37:29.186Z,39.61
2023-06-09T05:37:59.174Z,40.11
2023-06-09T05:38:29.191Z,40.77
2023-06-09T05:38:59.191Z,41.55
2023-06-09T05:39:29.181Z,42.32
2023-06-09T05:39:59.177Z,42.94
2023-06-09T05:40:29.182Z,43.09
2023-06-09T05:40:59.186Z,42.29
2023-06-09T05:41:29.179Z,41.4
2023-06-09T05:41:59.192Z,40.92
2023-06-09T05:42:29.187Z,40.97
2023-06-09T05:42:59.189Z,41.05
2023-06-09T05:43:29.182Z,41.04
2023-06-09T05:43:59.227Z,40.93
2023-06-09T05:44:29.194Z,41.11
2023-06-09T05:44:59.183Z,40.88
2023-06-09T05:45:29.188Z,40.85
2023-06-09T05:45:59.229Z,40.98
2023-06-09T05:46:29.348Z,40.7
2023-06-09T05:46:59.186Z,40.31
2023-06-09T05:47:29.207Z,40.05
2023-06-09T05:47:59.245Z,39.98
2023-06-09T05:48:29.185Z,40.13
2023-06-09T05:48:59.200Z,40.75
2023-06-09T05:49:29.204Z,41.46
2023-06-09T05:49:59.183Z,42.26
2023-06-09T05:50:29.200Z,42.82
2023-06-09T05:50:59.228Z,42.87
2023-06-09T05:51:29.188Z,43
2023-06-09T05:51:59.192Z,42.85
2023-06-09T05:52:31.035Z,42.91
2023-06-09T05:52:59.194Z,43.01
2023-06-09T05:53:29.192Z,43.18
2023-06-09T05:53:59.187Z,43.21
2023-06-09T05:54:29.200Z,43.19
2023-06-09T05:54:59.206Z,42.99
2023-06-09T05:55:29.186Z,42.67
2023-06-09T05:55:59.188Z,41.93
2023-06-09T05:56:29.189Z,41.14
2023-06-09T05:56:59.228Z,40.88
2023-06-09T05:57:29.346Z,40.87
2023-06-09T05:57:59.186Z,40.13
2023-06-09T05:58:29.311Z,39.5
2023-06-09T05:58:59.187Z,39.38
2023-06-09T05:59:29.192Z,39.79
2023-06-09T05:59:59.196Z,40.03
2023-06-09T06:00:29.294Z,39.68
2023-06-09T06:00:59.527Z,39.81
2023-06-09T06:01:29.205Z,40.16
2023-06-09T06:01:59.244Z,40.54
2023-06-09T06:02:29.439Z,40.72
2023-06-09T06:02:59.311Z,41.09
2023-06-09T06:03:29.500Z,40.31
2023-06-09T06:03:59.269Z,39.85
2023-06-09T06:04:29.311Z,39.82
2023-06-09T06:04:59.194Z,39.28
2023-06-09T06:05:29.200Z,38.82
2023-06-09T06:05:59.192Z,38.82
2023-06-09T06:06:29.195Z,39.19
2023-06-09T06:06:59.204Z,39.81
2023-06-09T06:07:29.205Z,40.48
2023-06-09T06:07:59.207Z,41.08
2023-06-09T06:08:29.216Z,41.78
2023-06-09T06:08:59.201Z,42.25
2023-06-09T06:09:29.213Z,42.62
2023-06-09T06:09:59.202Z,42.58
2023-06-09T06:10:29.239Z,42.54
2023-06-09T06:10:59.279Z,42.78
2023-06-09T06:11:29.202Z,42.99
2023-06-09T06:11:59.192Z,43.35
2023-06-09T06:12:29.196Z,43.74
2023-06-09T06:12:59.199Z,43.76
2023-06-09T06:13:29.198Z,43.94
2023-06-09T06:13:59.194Z,44.31
2023-06-09T06:14:29.210Z,44.76
2023-06-09T06:14:59.212Z,44.94
2023-06-09T06:15:29.212Z,44.77
2023-06-09T06:15:59.287Z,44.71
2023-06-09T06:16:29.255Z,44.87
2023-06-09T06:16:59.194Z,44.41
2023-06-09T06:17:29.232Z,43.94
2023-06-09T06:17:59.228Z,43.59
2023-06-09T06:18:29.212Z,43.48
2023-06-09T06:18:59.205Z,43.49
2023-06-09T06:19:29.211Z,43.7
2023-06-09T06:19:59.198Z,44.01
2023-06-09T06:20:29.216Z,44.32
2023-06-09T06:20:59.452Z,44.37
2023-06-09T06:21:29.202Z,44.62
2023-06-09T06:21:59.206Z,44.78
2023-06-09T06:22:29.205Z,45.09
2023-06-09T06:22:59.206Z,45.38
2023-06-09T06:23:29.294Z,45.72
2023-06-09T06:23:59.261Z,45.97
2023-06-09T06:24:29.203Z,46.2
2023-06-09T06:24:59.209Z,46.36
2023-06-09T06:25:29.201Z,46.27
2023-06-09T06:25:59.203Z,46.23
2023-06-09T06:26:29.206Z,46.38
2023-06-09T06:26:59.200Z,46.07
2023-06-09T06:27:29.201Z,45.75
2023-06-09T06:27:59.205Z,45.38